createdAt,value
2018-09-17T00:01:32.038Z,95891.67
2018-09-17T00:04:01.442Z,95888.53
2018-09-17T00:06:31.034Z,95892.77
2018-09-17T00:09:00.489Z,95884.30
2018-09-17T00:11:29.896Z,95898.05
2018-09-17T00:13:59.931Z,95898.34
2018-09-17T00:16:29.421Z,95900.44
2018-09-17T00:18:58.866Z,95891.18
2018-09-17T00:21:28.453Z,95900.98
2018-09-17T00:23:57.829Z,95895.41
2018-09-17T00:26:27.139Z,95891.98
2018-09-17T00:28:56.640Z,95890.94
2018-09-17T00:31:26.385Z,95897.52
2018-09-17T00:33:56.003Z,95897.79
2018-09-17T00:36:25.683Z,95897.79
2018-09-17T00:38:54.972Z,95897.55
2018-09-17T00:41:24.603Z,95894.08
2018-09-17T00:43:54.196Z,95897.53
2018-09-17T00:46:23.719Z,95898.58
2018-09-17T00:48:53.646Z,95899.09
2018-09-17T00:51:23.238Z,95896.70
2018-09-17T00:53:52.933Z,95895.66
2018-09-17T00:56:22.678Z,95896.69
2018-09-17T00:58:52.397Z,95895.37
2018-09-17T01:01:21.993Z,95898.05
2018-09-17T01:03:52.040Z,95907.01
2018-09-17T01:06:21.938Z,95910.42
2018-09-17T01:08:51.708Z,95898.81
2018-09-17T01:11:21.038Z,95895.91
2018-09-17T01:13:50.437Z,95892.46
2018-09-17T01:16:20.018Z,95894.30
2018-09-17T01:18:50.059Z,95891.42
2018-09-17T01:21:19.638Z,95895.66
2018-09-17T01:23:49.359Z,95889.03
2018-09-17T01:26:19.322Z,95890.88
2018-09-17T01:28:48.886Z,95888.69
2018-09-17T01:31:18.905Z,95894.80
2018-09-17T01:33:48.352Z,95893.98
2018-09-17T01:53:40.210Z,95877.87
2018-09-17T01:56:09.993Z,95881.30
2018-09-17T01:58:39.467Z,95881.83
2018-09-17T02:01:09.347Z,95878.95
2018-09-17T02:03:39.119Z,95876.09
2018-09-17T02:06:08.504Z,95868.37
2018-09-17T02:08:38.229Z,95870.49
2018-09-17T02:28:27.853Z,95876.75
2018-09-17T02:30:57.309Z,95878.08
2018-09-17T02:33:26.858Z,95876.73
2018-09-17T02:35:56.706Z,95876.69
2018-09-17T02:38:25.978Z,95883.02
2018-09-17T02:40:55.372Z,95881.14
2018-09-17T02:43:25.094Z,95888.30
2018-09-17T02:45:54.503Z,95885.11
2018-09-17T02:48:24.360Z,95881.12
2018-09-17T02:50:54.364Z,95881.64
2018-09-17T03:10:44.793Z,95884.78
2018-09-17T03:13:14.566Z,95891.08
2018-09-17T03:15:50.914Z,95893.41
2018-09-17T03:18:32.514Z,95897.69
2018-09-17T03:21:02.594Z,95900.36
2018-09-17T03:23:33.242Z,95903.98
2018-09-17T03:26:03.114Z,95901.87
2018-09-17T03:28:32.946Z,95904.50
2018-09-17T03:31:02.600Z,95911.95
2018-09-17T03:33:32.031Z,95902.39
2018-09-17T03:36:01.981Z,95902.59
2018-09-17T03:38:36.642Z,95909.31
2018-09-17T03:41:07.241Z,95906.65
2018-09-17T03:43:38.096Z,95902.60
2018-09-17T03:46:07.583Z,95905.00
2018-09-17T03:48:38.103Z,95908.67
2018-09-17T03:51:08.614Z,95906.89
2018-09-17T03:53:38.696Z,95912.42
2018-09-17T03:56:08.393Z,95913.73
2018-09-17T03:58:38.205Z,95915.08
2018-09-17T04:01:07.986Z,95918.23
2018-09-17T04:03:37.588Z,95916.70
2018-09-17T04:06:07.346Z,95922.78
2018-09-17T04:08:36.872Z,95915.90
2018-09-17T04:11:06.433Z,95923.58
2018-09-17T04:13:36.053Z,95924.08
2018-09-17T04:16:05.579Z,95920.14
2018-09-17T04:18:35.140Z,95919.86
2018-09-17T04:21:04.856Z,95923.84
2018-09-17T04:40:55.677Z,95932.06
2018-09-17T04:43:25.285Z,95929.98
2018-09-17T04:45:54.716Z,95933.66
2018-09-17T04:48:24.422Z,95935.23
2018-09-17T04:50:54.145Z,95937.33
2018-09-17T04:53:23.635Z,95937.09
2018-09-17T04:55:53.163Z,95940.27
2018-09-17T04:58:22.847Z,95934.22
2018-09-17T05:00:52.477Z,95931.60
2018-09-17T05:03:22.166Z,95941.34
2018-09-17T05:05:52.406Z,95941.34
2018-09-17T05:08:22.107Z,95941.89
2018-09-17T05:10:51.604Z,95936.91
2018-09-17T05:13:21.230Z,95936.91
2018-09-17T05:15:50.845Z,95934.01
2018-09-17T05:18:20.318Z,95940.09
2018-09-17T05:20:49.957Z,95937.99
2018-09-17T05:23:19.347Z,95940.13
2018-09-17T05:25:49.059Z,95937.48
2018-09-17T05:28:19.189Z,95939.92
2018-09-17T05:48:11.664Z,95939.11
2018-09-17T05:50:41.453Z,95947.56
2018-09-17T05:53:10.831Z,95946.23
2018-09-17T05:55:40.246Z,95949.97
2018-09-17T05:58:10.294Z,95951.81
2018-09-17T06:00:39.687Z,95949.39
2018-09-17T06:03:09.290Z,95954.65
2018-09-17T06:05:38.939Z,95956.25
2018-09-17T06:08:08.488Z,95954.37
2018-09-17T06:28:00.541Z,95965.34
2018-09-17T06:30:29.962Z,95965.89
2018-09-17T06:32:59.566Z,95968.79
2018-09-17T06:52:51.607Z,95963.61
2018-09-17T06:55:21.195Z,95969.71
2018-09-17T06:57:50.834Z,95965.21
2018-09-17T07:00:20.813Z,95978.69
2018-09-17T07:02:50.352Z,95980.83
2018-09-17T07:05:20.470Z,95983.97
2018-09-17T07:07:50.169Z,95984.25
2018-09-17T07:10:19.762Z,95986.11
2018-09-17T07:12:49.209Z,95991.17
2018-09-17T07:15:19.366Z,95989.58
2018-09-17T07:17:48.933Z,95985.62
2018-09-17T07:20:18.347Z,95981.91
2018-09-17T07:22:48.426Z,95988.79
2018-09-17T07:25:18.122Z,95982.72
2018-09-17T07:27:47.678Z,95986.14
2018-09-17T07:30:17.216Z,95982.16
2018-09-17T07:32:46.797Z,95985.09
2018-09-17T07:52:36.690Z,95977.61
2018-09-17T07:55:06.201Z,95977.86
2018-09-17T07:57:35.938Z,95971.77
2018-09-17T08:00:05.958Z,95979.17
2018-09-17T08:02:35.427Z,95972.22
2018-09-17T08:05:04.905Z,95968.00
2018-09-17T08:07:34.973Z,95964.27
2018-09-17T08:10:04.682Z,95965.08
2018-09-17T08:12:34.282Z,95962.92
2018-09-17T08:15:04.313Z,95946.37
2018-09-17T08:17:34.110Z,95948.84
2018-09-17T08:20:03.720Z,95947.91
2018-09-17T08:22:33.547Z,95940.88
2018-09-17T08:25:02.940Z,95944.48
2018-09-17T08:44:54.605Z,95918.59
2018-09-17T08:47:24.131Z,95913.55
2018-09-17T08:49:53.990Z,95918.47
2018-09-17T08:52:24.110Z,95911.29
2018-09-17T08:54:58.748Z,95911.70
2018-09-17T08:57:36.237Z,95899.41
2018-09-17T09:00:12.672Z,95909.09
2018-09-17T09:20:03.283Z,95877.81
2018-09-17T09:22:32.531Z,95879.40
2018-09-17T09:25:02.137Z,95874.84
2018-09-17T09:27:31.993Z,95872.64
2018-09-17T09:30:01.458Z,95865.99
2018-09-17T09:32:30.906Z,95866.77
2018-09-17T09:35:00.964Z,95853.95
2018-09-17T09:37:30.387Z,95857.11
2018-09-17T09:57:21.852Z,95835.08
2018-09-17T09:59:51.325Z,95839.17
2018-09-17T10:02:26.095Z,95836.75
2018-09-17T10:22:17.407Z,95824.53
2018-09-17T10:24:47.035Z,95823.24
2018-09-17T10:27:17.813Z,95819.55
2018-09-17T10:29:48.034Z,95816.63
2018-09-17T10:32:17.461Z,95824.39
2018-09-17T10:34:46.982Z,95821.32
2018-09-17T10:37:16.971Z,95821.86
2018-09-17T10:57:09.130Z,95804.21
2018-09-17T10:59:38.709Z,95806.91
2018-09-17T11:02:08.288Z,95801.37
2018-09-17T11:04:37.896Z,95799.81
2018-09-17T11:07:07.623Z,95799.76
2018-09-17T11:09:37.198Z,95804.62
2018-09-17T11:12:13.677Z,95803.34
2018-09-17T11:32:04.947Z,95786.87
2018-09-17T11:34:34.645Z,95786.41
2018-09-17T11:37:04.936Z,95787.68
2018-09-17T11:39:34.637Z,95783.42
2018-09-17T11:42:04.475Z,95778.78
2018-09-17T11:44:34.538Z,95776.25
2018-09-17T12:04:32.010Z,95751.96
2018-09-17T12:07:06.684Z,95749.30
2018-09-17T12:09:36.289Z,95748.53
2018-09-17T12:12:05.905Z,95746.94
2018-09-17T12:14:35.883Z,95745.19
2018-09-17T12:17:05.271Z,95738.22
2018-09-17T12:19:34.774Z,95737.98
2018-09-17T12:22:04.661Z,95732.14
2018-09-17T12:24:34.258Z,95739.95
2018-09-17T12:27:03.658Z,95730.06
2018-09-17T12:29:33.797Z,95738.38
2018-09-17T12:32:03.207Z,95738.73
2018-09-17T12:34:32.982Z,95729.31
2018-09-17T12:37:03.241Z,95728.62
2018-09-17T12:39:32.584Z,95726.18
2018-09-17T12:42:02.080Z,95722.47
2018-09-17T12:44:31.969Z,95719.07
2018-09-17T12:47:01.378Z,95711.79
2018-09-17T13:06:53.486Z,95704.80
2018-09-17T13:09:23.279Z,95693.19
2018-09-17T13:11:53.079Z,95690.91
2018-09-17T13:14:22.963Z,95696.15
2018-09-17T13:16:52.702Z,95693.75
2018-09-17T13:19:22.060Z,95691.55
2018-09-17T13:21:51.794Z,95681.27
2018-09-17T13:24:21.467Z,95675.16
2018-09-17T13:26:51.086Z,95673.30
2018-09-17T13:29:20.913Z,95676.34
2018-09-17T13:49:13.027Z,95670.09
2018-09-17T13:51:43.008Z,95667.00
2018-09-17T13:54:12.350Z,95668.39
2018-09-17T13:56:41.832Z,95660.55
2018-09-17T13:59:11.737Z,95660.94
2018-09-17T14:01:41.251Z,95657.14
2018-09-17T14:21:32.220Z,95636.28
2018-09-17T14:24:01.822Z,95639.45
2018-09-17T14:26:31.583Z,95638.98
2018-09-17T14:29:01.138Z,95640.50
2018-09-17T14:31:35.718Z,95643.70
2018-09-17T14:34:05.799Z,95639.01
2018-09-17T14:36:35.393Z,95644.69
2018-09-17T14:56:27.602Z,95634.50
2018-09-17T14:58:57.287Z,95636.68
2018-09-17T15:01:26.898Z,95631.13
2018-09-17T15:03:56.340Z,95627.19
2018-09-17T15:06:25.792Z,95636.34
2018-09-17T15:08:55.349Z,95642.45
2018-09-17T15:11:25.285Z,95641.66
2018-09-17T15:13:54.927Z,95639.13
2018-09-17T15:16:24.352Z,95637.66
2018-09-17T15:18:54.297Z,95639.33
2018-09-17T15:21:23.632Z,95635.77
2018-09-17T15:41:15.935Z,95654.33
2018-09-17T15:43:45.794Z,95653.49
2018-09-17T16:03:37.266Z,95664.37
2018-09-17T16:06:06.670Z,95660.72
2018-09-17T16:08:36.193Z,95660.97
2018-09-17T16:11:05.583Z,95672.81
2018-09-17T16:13:35.130Z,95663.89
2018-09-17T16:16:04.539Z,95664.63
2018-09-17T16:18:34.237Z,95665.89
2018-09-17T16:21:04.673Z,95663.41
2018-09-17T16:23:34.219Z,95664.02
2018-09-17T16:43:25.652Z,95663.27
2018-09-17T16:45:55.292Z,95662.15
2018-09-17T16:48:24.690Z,95664.58
2018-09-17T16:50:54.558Z,95670.55
2018-09-17T16:53:23.977Z,95676.00
2018-09-17T16:55:53.310Z,95683.07
2018-09-17T16:58:23.151Z,95681.00
2018-09-17T17:00:52.512Z,95684.92
2018-09-17T17:03:22.166Z,95682.80
2018-09-17T17:05:51.941Z,95683.77
2018-09-17T17:08:21.566Z,95684.55
2018-09-17T17:10:51.024Z,95683.68
2018-09-17T17:13:20.753Z,95685.23
2018-09-17T17:15:50.687Z,95691.69
2018-09-17T17:35:43.015Z,95686.80
2018-09-17T17:55:34.290Z,95715.44
2018-09-17T17:58:04.017Z,95712.95
2018-09-17T18:17:56.274Z,95727.02
2018-09-17T18:20:26.233Z,95729.94
2018-09-17T18:22:56.027Z,95727.81
2018-09-17T18:25:25.712Z,95723.93
2018-09-17T18:27:55.522Z,95732.09
2018-09-17T18:30:24.974Z,95730.53
2018-09-17T18:32:54.842Z,95730.89
2018-09-17T18:35:24.323Z,95734.64
2018-09-17T18:37:53.945Z,95732.69
2018-09-17T18:40:23.557Z,95736.16
2018-09-17T18:42:53.495Z,95736.39
2018-09-17T18:45:23.378Z,95731.80
2018-09-17T19:05:15.598Z,95723.28
2018-09-17T19:07:45.353Z,95726.25
2018-09-17T19:27:42.809Z,95744.50
2018-09-17T19:47:34.894Z,95751.44
2018-09-17T19:50:08.604Z,95750.22
2018-09-17T19:52:38.245Z,95744.52
2018-09-17T19:55:07.951Z,95758.78
2018-09-17T19:57:43.009Z,95755.41
2018-09-17T20:29:10.418Z,95779.41
2018-09-17T20:31:40.282Z,95773.80
2018-09-17T20:34:09.886Z,95778.02
2018-09-17T20:36:39.651Z,95781.56
2018-09-17T20:39:10.590Z,95773.95
2018-09-17T20:41:40.503Z,95776.56
2018-09-17T20:44:10.021Z,95780.12
2018-09-17T20:46:39.909Z,95783.95
2018-09-17T20:49:16.152Z,95775.97
2018-09-17T20:51:46.236Z,95781.02
2018-09-17T20:54:16.018Z,95789.41
2018-09-17T20:56:45.846Z,95782.59
2018-09-17T20:59:15.367Z,95780.03
2018-09-17T21:01:45.165Z,95778.18
2018-09-17T21:04:14.758Z,95780.16
2018-09-17T21:06:44.808Z,95773.40
2018-09-17T21:09:14.429Z,95781.52
2018-09-17T21:11:43.872Z,95783.63
2018-09-17T21:14:13.382Z,95781.72
2018-09-17T21:16:42.741Z,95787.39
2018-09-17T21:19:12.361Z,95785.75
2018-09-17T21:21:42.044Z,95781.25
2018-09-17T21:24:11.537Z,95787.60
2018-09-17T21:26:41.041Z,95787.94
2018-09-17T21:29:11.243Z,95789.06
2018-09-17T21:31:40.638Z,95791.92
2018-09-17T21:34:10.055Z,95795.75
2018-09-17T21:36:39.834Z,95793.67
2018-09-17T21:39:12.121Z,95799.06
2018-09-17T21:41:42.023Z,95793.42
2018-09-17T21:44:11.462Z,95795.73
2018-09-17T21:46:41.179Z,95797.74
2018-09-17T21:49:11.802Z,95801.05
2018-09-17T21:51:41.428Z,95797.92
2018-09-17T21:54:10.810Z,95791.77
2018-09-17T21:56:40.858Z,95794.59
2018-09-17T21:59:10.292Z,95797.25
2018-09-17T22:01:40.050Z,95796.61
2018-09-17T22:04:09.746Z,95798.74
2018-09-17T22:06:39.182Z,95801.60
2018-09-17T22:09:08.965Z,95808.54
2018-09-17T22:11:38.744Z,95803.34
2018-09-17T22:14:08.517Z,95805.99
2018-09-17T22:16:37.996Z,95800.48
2018-09-17T22:19:07.853Z,95801.85
2018-09-17T22:21:37.840Z,95799.19
2018-09-17T22:24:07.580Z,95800.00
2018-09-17T22:26:37.842Z,95795.28
2018-09-17T22:29:07.738Z,95800.58
2018-09-17T22:31:37.347Z,95792.09
2018-09-17T22:34:07.446Z,95793.25
2018-09-17T22:36:37.291Z,95793.25
2018-09-17T22:39:09.369Z,95791.17
2018-09-17T22:41:39.218Z,95796.25
2018-09-17T22:44:08.817Z,95791.75
2018-09-17T22:46:38.653Z,95790.13
2018-09-17T22:49:08.707Z,95795.92
2018-09-17T22:51:38.452Z,95789.10
2018-09-17T22:54:08.534Z,95803.36
2018-09-17T22:56:38.038Z,95796.53
2018-09-17T22:59:07.594Z,95790.95
2018-09-17T23:01:37.227Z,95794.13
2018-09-17T23:04:06.817Z,95794.20
2018-09-17T23:06:36.365Z,95793.61
2018-09-17T23:09:09.209Z,95801.35
2018-09-17T23:11:38.914Z,95801.92
2018-09-17T23:14:08.621Z,95804.53
2018-09-17T23:16:38.623Z,95810.11
2018-09-17T23:19:08.039Z,95805.90
2018-09-17T23:21:38.942Z,95808.26
2018-09-17T23:24:08.822Z,95809.87
2018-09-17T23:26:38.400Z,95810.42
2018-09-17T23:29:07.814Z,95804.33
2018-09-17T23:31:37.554Z,95807.78
2018-09-17T23:34:07.128Z,95813.08
2018-09-17T23:36:36.636Z,95804.37
2018-09-17T23:39:09.624Z,95798.59
2018-09-17T23:41:39.534Z,95801.76
2018-09-17T23:44:09.419Z,95795.42
2018-09-17T23:46:39.390Z,95793.30
2018-09-17T23:49:09.198Z,95788.03
2018-09-17T23:51:39.084Z,95793.41
2018-09-17T23:54:09.118Z,95789.70
2018-09-17T23:56:38.867Z,95784.66
2018-09-17T23:59:08.439Z,95786.81
